sensor_id;sensor_type;location;lat;lon;timestamp;pressure;altitude;pressure_sealevel;temperature;humidity
6393;BME280;3229;42.674;23.282;2023-03-19T00:01:33;95148.63;;;7.78;47.91
6393;BME280;3229;42.674;23.282;2023-03-19T00:04:02;95139.47;;;7.75;47.87
6393;BME280;3229;42.674;23.282;2023-03-19T00:06:29;95146.28;;;7.75;47.88
6393;BME280;3229;42.674;23.282;2023-03-19T00:08:55;95141.31;;;7.73;47.90
6393;BME280;3229;42.674;23.282;2023-03-19T00:11:22;95141.41;;;7.72;47.92
6393;BME280;3229;42.674;23.282;2023-03-19T00:13:49;95143.13;;;7.71;48.03
6393;BME280;3229;42.674;23.282;2023-03-19T00:16:16;95145.00;;;7.69;48.01
6393;BME280;3229;42.674;23.282;2023-03-19T00:18:43;95148.44;;;7.68;48.09
6393;BME280;3229;42.674;23.282;2023-03-19T00:21:11;95138.72;;;7.62;48.20
6393;BME280;3229;42.674;23.282;2023-03-19T00:23:37;95139.44;;;7.64;48.34
6393;BME280;3229;42.674;23.282;2023-03-19T00:26:04;95132.00;;;7.61;48.36
6393;BME280;3229;42.674;23.282;2023-03-19T00:28:32;95131.19;;;7.61;48.34
6393;BME280;3229;42.674;23.282;2023-03-19T00:31:06;95129.53;;;7.60;48.37
6393;BME280;3229;42.674;23.282;2023-03-19T00:33:33;95131.28;;;7.59;48.36
6393;BME280;3229;42.674;23.282;2023-03-19T00:36:00;95126.31;;;7.58;48.47
6393;BME280;3229;42.674;23.282;2023-03-19T00:38:28;95116.25;;;7.56;48.31
6393;BME280;3229;42.674;23.282;2023-03-19T00:40:55;95119.69;;;7.55;48.54
6393;BME280;3229;42.674;23.282;2023-03-19T00:43:22;95117.25;;;7.53;48.60
6393;BME280;3229;42.674;23.282;2023-03-19T00:45:49;95115.66;;;7.52;48.61
6393;BME280;3229;42.674;23.282;2023-03-19T00:48:16;95104.06;;;7.48;48.56
6393;BME280;3229;42.674;23.282;2023-03-19T00:50:43;95108.94;;;7.51;48.52
6393;BME280;3229;42.674;23.282;2023-03-19T00:53:10;95110.78;;;7.49;48.69
6393;BME280;3229;42.674;23.282;2023-03-19T00:55:38;95101.72;;;7.45;48.64
6393;BME280;3229;42.674;23.282;2023-03-19T00:58:05;95111.69;;;7.48;48.80
6393;BME280;3229;42.674;23.282;2023-03-19T01:00:32;95103.25;;;7.48;48.67
6393;BME280;3229;42.674;23.282;2023-03-19T01:03:01;95099.91;;;7.47;48.57
6393;BME280;3229;42.674;23.282;2023-03-19T01:05:28;95097.44;;;7.46;48.73
6393;BME280;3229;42.674;23.282;2023-03-19T01:07:55;95098.38;;;7.45;48.70
6393;BME280;3229;42.674;23.282;2023-03-19T01:10:23;95089.34;;;7.41;48.79
6393;BME280;3229;42.674;23.282;2023-03-19T01:12:51;95094.22;;;7.44;48.61
6393;BME280;3229;42.674;23.282;2023-03-19T01:15:18;95088.53;;;7.40;48.63
6393;BME280;3229;42.674;23.282;2023-03-19T01:17:46;95088.41;;;7.42;48.68
6393;BME280;3229;42.674;23.282;2023-03-19T01:20:12;95092.69;;;7.41;48.68
6393;BME280;3229;42.674;23.282;2023-03-19T01:22:43;95077.94;;;7.34;48.90
6393;BME280;3229;42.674;23.282;2023-03-19T01:25:12;95087.72;;;7.40;48.88
6393;BME280;3229;42.674;23.282;2023-03-19T01:27:39;95083.66;;;7.37;48.79
6393;BME280;3229;42.674;23.282;2023-03-19T01:30:09;95085.59;;;7.34;48.74
6393;BME280;3229;42.674;23.282;2023-03-19T01:32:36;95080.50;;;7.34;48.84
6393;BME280;3229;42.674;23.282;2023-03-19T01:35:03;95089.78;;;7.35;48.91
6393;BME280;3229;42.674;23.282;2023-03-19T01:37:30;95083.88;;;7.34;48.98
6393;BME280;3229;42.674;23.282;2023-03-19T01:39:57;95087.44;;;7.32;49.02
6393;BME280;3229;42.674;23.282;2023-03-19T01:42:24;95089.19;;;7.31;49.01
6393;BME280;3229;42.674;23.282;2023-03-19T01:44:51;95096.00;;;7.31;49.08
6393;BME280;3229;42.674;23.282;2023-03-19T01:47:26;95085.81;;;7.31;49.24
6393;BME280;3229;42.674;23.282;2023-03-19T01:49:55;95084.63;;;7.23;49.34
6393;BME280;3229;42.674;23.282;2023-03-19T01:52:24;95092.03;;;7.26;49.24
6393;BME280;3229;42.674;23.282;2023-03-19T01:54:54;95091.25;;;7.26;49.45
6393;BME280;3229;42.674;23.282;2023-03-19T01:57:22;95101.50;;;7.24;49.40
6393;BME280;3229;42.674;23.282;2023-03-19T01:59:52;95096.53;;;7.23;49.43
6393;BME280;3229;42.674;23.282;2023-03-19T02:02:25;95084.94;;;7.19;49.64
6393;BME280;3229;42.674;23.282;2023-03-19T02:04:57;95093.50;;;7.18;49.61
6393;BME280;3229;42.674;23.282;2023-03-19T02:07:24;95098.47;;;7.19;49.72
6393;BME280;3229;42.674;23.282;2023-03-19T02:09:52;95099.28;;;7.20;49.80
6393;BME280;3229;42.674;23.282;2023-03-19T02:12:19;95095.31;;;7.16;49.88
6393;BME280;3229;42.674;23.282;2023-03-19T02:14:46;95091.03;;;7.16;49.77
6393;BME280;3229;42.674;23.282;2023-03-19T02:17:13;95085.16;;;7.16;49.72
6393;BME280;3229;42.674;23.282;2023-03-19T02:19:48;95080.38;;;7.11;49.92
6393;BME280;3229;42.674;23.282;2023-03-19T02:22:20;95086.19;;;7.13;49.87
6393;BME280;3229;42.674;23.282;2023-03-19T02:24:51;95092.28;;;7.11;49.93
6393;BME280;3229;42.674;23.282;2023-03-19T02:27:20;95085.47;;;7.11;50.00
6393;BME280;3229;42.674;23.282;2023-03-19T02:29:47;95086.50;;;7.09;50.08
6393;BME280;3229;42.674;23.282;2023-03-19T02:32:14;95087.31;;;7.09;50.16
6393;BME280;3229;42.674;23.282;2023-03-19T02:34:42;95089.97;;;7.08;49.99
6393;BME280;3229;42.674;23.282;2023-03-19T02:37:15;95101.06;;;7.07;50.01
6393;BME280;3229;42.674;23.282;2023-03-19T02:39:50;95096.09;;;7.05;50.36
6393;BME280;3229;42.674;23.282;2023-03-19T02:42:20;95098.72;;;7.03;50.29
6393;BME280;3229;42.674;23.282;2023-03-19T02:44:48;95098.03;;;7.01;50.30
6393;BME280;3229;42.674;23.282;2023-03-19T02:47:15;95100.56;;;7.01;50.42
6393;BME280;3229;42.674;23.282;2023-03-19T02:49:42;95102.41;;;6.99;50.32
6393;BME280;3229;42.674;23.282;2023-03-19T02:52:09;95096.41;;;7.00;50.29
6393;BME280;3229;42.674;23.282;2023-03-19T02:54:36;95099.97;;;6.98;50.49
6393;BME280;3229;42.674;23.282;2023-03-19T02:57:03;95091.84;;;6.93;50.69
6393;BME280;3229;42.674;23.282;2023-03-19T02:59:31;95105.97;;;6.97;50.38
6393;BME280;3229;42.674;23.282;2023-03-19T03:01:58;95106.09;;;6.95;50.42
6393;BME280;3229;42.674;23.282;2023-03-19T03:04:25;95102.81;;;6.93;50.78
6393;BME280;3229;42.674;23.282;2023-03-19T03:06:53;95107.09;;;6.93;50.56
6393;BME280;3229;42.674;23.282;2023-03-19T03:09:20;95110.56;;;6.92;50.81
6393;BME280;3229;42.674;23.282;2023-03-19T03:11:47;95117.38;;;6.91;50.58
6393;BME280;3229;42.674;23.282;2023-03-19T03:14:14;95115.72;;;6.90;50.69
6393;BME280;3229;42.674;23.282;2023-03-19T03:16:42;95120.00;;;6.90;50.73
6393;BME280;3229;42.674;23.282;2023-03-19T03:19:09;95115.03;;;6.88;50.75
6393;BME280;3229;42.674;23.282;2023-03-19T03:21:37;95115.97;;;6.87;51.08
6393;BME280;3229;42.674;23.282;2023-03-19T03:24:04;95116.06;;;6.86;50.82
6393;BME280;3229;42.674;23.282;2023-03-19T03:26:31;95121.13;;;6.86;50.86
6393;BME280;3229;42.674;23.282;2023-03-19T03:28:59;95118.72;;;6.84;50.76
6393;BME280;3229;42.674;23.282;2023-03-19T03:31:25;95115.44;;;6.82;50.85
6393;BME280;3229;42.674;23.282;2023-03-19T03:33:53;95117.16;;;6.82;51.20
6393;BME280;3229;42.674;23.282;2023-03-19T03:36:20;95121.44;;;6.81;50.85
6393;BME280;3229;42.674;23.282;2023-03-19T03:38:47;95116.47;;;6.79;50.91
6393;BME280;3229;42.674;23.282;2023-03-19T03:41:14;95122.38;;;6.80;50.87
6393;BME280;3229;42.674;23.282;2023-03-19T03:43:41;95125.84;;;6.79;50.91
6393;BME280;3229;42.674;23.282;2023-03-19T03:46:08;95125.13;;;6.77;51.13
6393;BME280;3229;42.674;23.282;2023-03-19T03:48:35;95127.78;;;6.75;51.04
6393;BME280;3229;42.674;23.282;2023-03-19T03:51:03;95124.41;;;6.75;51.04
6393;BME280;3229;42.674;23.282;2023-03-19T03:53:30;95131.94;;;6.76;51.20
6393;BME280;3229;42.674;23.282;2023-03-19T03:55:57;95129.69;;;6.72;51.02
6393;BME280;3229;42.674;23.282;2023-03-19T03:58:24;95136.19;;;6.76;51.07
6393;BME280;3229;42.674;23.282;2023-03-19T04:00:51;95137.13;;;6.75;51.27
6393;BME280;3229;42.674;23.282;2023-03-19T04:03:19;95129.69;;;6.72;51.34
6393;BME280;3229;42.674;23.282;2023-03-19T04:05:46;95126.22;;;6.73;51.31
6393;BME280;3229;42.674;23.282;2023-03-19T04:08:15;95123.13;;;6.69;51.27
6393;BME280;3229;42.674;23.282;2023-03-19T04:10:42;95121.38;;;6.70;51.41
6393;BME280;3229;42.674;23.282;2023-03-19T04:13:09;95125.66;;;6.69;51.46
6393;BME280;3229;42.674;23.282;2023-03-19T04:15:36;95125.66;;;6.69;51.44
6393;BME280;3229;42.674;23.282;2023-03-19T04:18:03;95129.09;;;6.68;51.60
6393;BME280;3229;42.674;23.282;2023-03-19T04:20:30;95120.78;;;6.66;51.55
6393;BME280;3229;42.674;23.282;2023-03-19T04:22:56;95120.78;;;6.66;51.68
6393;BME280;3229;42.674;23.282;2023-03-19T04:25:24;95119.16;;;6.65;51.59
6393;BME280;3229;42.674;23.282;2023-03-19T04:27:51;95125.03;;;6.66;51.61
6393;BME280;3229;42.674;23.282;2023-03-19T04:30:18;95123.38;;;6.65;51.58
6393;BME280;3229;42.674;23.282;2023-03-19T04:32:45;95122.81;;;6.61;51.86
6393;BME280;3229;42.674;23.282;2023-03-19T04:35:12;95127.59;;;6.66;51.75
6393;BME280;3229;42.674;23.282;2023-03-19T04:37:39;95126.84;;;6.64;51.56
6393;BME280;3229;42.674;23.282;2023-03-19T04:40:08;95130.00;;;6.67;51.69
6393;BME280;3229;42.674;23.282;2023-03-19T04:42:38;95133.47;;;6.66;51.74
6393;BME280;3229;42.674;23.282;2023-03-19T04:45:06;95134.97;;;6.69;51.85
6393;BME280;3229;42.674;23.282;2023-03-19T04:47:33;95140.78;;;6.71;51.82
6393;BME280;3229;42.674;23.282;2023-03-19T04:50:00;95137.22;;;6.73;51.82
6393;BME280;3229;42.674;23.282;2023-03-19T04:52:27;95139.47;;;6.78;51.80
6393;BME280;3229;42.674;23.282;2023-03-19T04:54:54;95141.69;;;6.83;51.74
6393;BME280;3229;42.674;23.282;2023-03-19T04:57:21;95127.44;;;6.80;51.77
6393;BME280;3229;42.674;23.282;2023-03-19T04:59:49;95140.03;;;6.94;51.67
6393;BME280;3229;42.674;23.282;2023-03-19T05:02:16;95131.06;;;7.01;51.72
6393;BME280;3229;42.674;23.282;2023-03-19T05:04:42;95137.25;;;7.10;51.53
6393;BME280;3229;42.674;23.282;2023-03-19T05:07:09;95135.50;;;7.23;51.33
6393;BME280;3229;42.674;23.282;2023-03-19T05:09:36;95146.22;;;7.40;51.13
6393;BME280;3229;42.674;23.282;2023-03-19T05:12:03;95143.91;;;7.61;50.86
6393;BME280;3229;42.674;23.282;2023-03-19T05:14:31;95142.66;;;7.90;50.33
6393;BME280;3229;42.674;23.282;2023-03-19T05:16:59;95141.38;;;8.31;50.05
6393;BME280;3229;42.674;23.282;2023-03-19T05:19:26;95140.88;;;8.84;49.82
6393;BME280;3229;42.674;23.282;2023-03-19T05:21:53;95141.16;;;9.46;49.63
6393;BME280;3229;42.674;23.282;2023-03-19T05:24:21;95144.81;;;10.18;49.40
6393;BME280;3229;42.674;23.282;2023-03-19T05:26:48;95140.16;;;10.95;49.02
6393;BME280;3229;42.674;23.282;2023-03-19T05:29:15;95140.75;;;11.78;48.35
6393;BME280;3229;42.674;23.282;2023-03-19T05:31:42;95146.78;;;12.64;47.77
6393;BME280;3229;42.674;23.282;2023-03-19T05:34:10;95142.13;;;13.52;46.84
6393;BME280;3229;42.674;23.282;2023-03-19T05:36:37;95146.31;;;14.42;46.10
6393;BME280;3229;42.674;23.282;2023-03-19T05:39:04;95142.47;;;15.32;44.91
6393;BME280;3229;42.674;23.282;2023-03-19T05:41:32;95135.72;;;16.23;44.14
6393;BME280;3229;42.674;23.282;2023-03-19T05:43:59;95140.78;;;17.13;43.14
6393;BME280;3229;42.674;23.282;2023-03-19T05:46:26;95140.69;;;17.99;42.34
6393;BME280;3229;42.674;23.282;2023-03-19T05:48:52;95145.09;;;18.83;41.37
6393;BME280;3229;42.674;23.282;2023-03-19T05:51:21;95149.16;;;19.66;40.68
6393;BME280;3229;42.674;23.282;2023-03-19T05:53:47;95151.94;;;20.43;39.73
6393;BME280;3229;42.674;23.282;2023-03-19T05:56:14;95152.28;;;21.18;39.09
6393;BME280;3229;42.674;23.282;2023-03-19T05:58:41;95163.81;;;21.91;38.23
6393;BME280;3229;42.674;23.282;2023-03-19T06:01:08;95154.13;;;22.60;37.56
6393;BME280;3229;42.674;23.282;2023-03-19T06:03:34;95155.25;;;23.30;36.86
6393;BME280;3229;42.674;23.282;2023-03-19T06:06:01;95155.84;;;23.97;36.24
6393;BME280;3229;42.674;23.282;2023-03-19T06:08:29;95152.78;;;24.63;35.99
6393;BME280;3229;42.674;23.282;2023-03-19T06:10:56;95151.84;;;25.26;35.04
6393;BME280;3229;42.674;23.282;2023-03-19T06:13:23;95157.00;;;25.88;34.90
6393;BME280;3229;42.674;23.282;2023-03-19T06:15:50;95158.47;;;26.44;34.06
6393;BME280;3229;42.674;23.282;2023-03-19T06:18:17;95161.81;;;26.98;33.55
6393;BME280;3229;42.674;23.282;2023-03-19T06:20:45;95154.59;;;27.52;33.22
6393;BME280;3229;42.674;23.282;2023-03-19T06:23:12;95156.94;;;28.06;32.94
6393;BME280;3229;42.674;23.282;2023-03-19T06:25:41;95156.59;;;28.59;32.08
6393;BME280;3229;42.674;23.282;2023-03-19T06:28:07;95166.09;;;29.11;31.77
6393;BME280;3229;42.674;23.282;2023-03-19T06:30:34;95171.25;;;29.61;31.39
6393;BME280;3229;42.674;23.282;2023-03-19T06:33:01;95171.53;;;30.09;31.39
6393;BME280;3229;42.674;23.282;2023-03-19T06:35:28;95170.16;;;30.55;30.64
6393;BME280;3229;42.674;23.282;2023-03-19T06:37:55;95170.25;;;30.97;30.74
6393;BME280;3229;42.674;23.282;2023-03-19T06:40:21;95173.94;;;31.39;29.97
6393;BME280;3229;42.674;23.282;2023-03-19T06:42:50;95179.44;;;31.80;29.81
6393;BME280;3229;42.674;23.282;2023-03-19T06:45:17;95178.25;;;32.18;29.82
6393;BME280;3229;42.674;23.282;2023-03-19T06:47:45;95181.25;;;32.57;29.61
6393;BME280;3229;42.674;23.282;2023-03-19T06:50:13;95196.38;;;32.92;29.31
6393;BME280;3229;42.674;23.282;2023-03-19T06:52:40;95193.69;;;33.23;28.96
6393;BME280;3229;42.674;23.282;2023-03-19T06:55:08;95200.81;;;33.53;28.73
6393;BME280;3229;42.674;23.282;2023-03-19T06:57:35;95201.78;;;33.83;28.65
6393;BME280;3229;42.674;23.282;2023-03-19T07:00:05;95191.84;;;34.09;28.41
6393;BME280;3229;42.674;23.282;2023-03-19T07:02:34;95192.75;;;34.38;28.08
6393;BME280;3229;42.674;23.282;2023-03-19T07:05:01;95200.59;;;34.64;28.04
6393;BME280;3229;42.674;23.282;2023-03-19T07:07:28;95207.56;;;34.89;27.81
6393;BME280;3229;42.674;23.282;2023-03-19T07:09:55;95202.88;;;35.10;27.63
6393;BME280;3229;42.674;23.282;2023-03-19T07:12:22;95193.13;;;35.29;27.35
6393;BME280;3229;42.674;23.282;2023-03-19T07:14:52;95197.47;;;35.49;27.32
6393;BME280;3229;42.674;23.282;2023-03-19T07:17:20;95198.88;;;35.65;27.24
6393;BME280;3229;42.674;23.282;2023-03-19T07:19:47;95186.81;;;35.73;27.17
6393;BME280;3229;42.674;23.282;2023-03-19T07:22:14;95207.31;;;35.97;26.85
6393;BME280;3229;42.674;23.282;2023-03-19T07:24:41;95192.00;;;36.07;27.04
6393;BME280;3229;42.674;23.282;2023-03-19T07:27:08;95194.25;;;36.19;26.75
6393;BME280;3229;42.674;23.282;2023-03-19T07:29:34;95187.19;;;36.28;26.80
6393;BME280;3229;42.674;23.282;2023-03-19T07:32:02;95189.72;;;36.38;26.75
6393;BME280;3229;42.674;23.282;2023-03-19T07:34:30;95186.13;;;36.48;26.66
6393;BME280;3229;42.674;23.282;2023-03-19T07:36:57;95192.69;;;36.56;26.64
6393;BME280;3229;42.674;23.282;2023-03-19T07:39:24;95191.03;;;36.60;26.54
6393;BME280;3229;42.674;23.282;2023-03-19T07:41:50;95177.91;;;36.63;26.41
6393;BME280;3229;42.674;23.282;2023-03-19T07:44:17;95193.91;;;36.63;26.59
6393;BME280;3229;42.674;23.282;2023-03-19T07:46:44;95188.88;;;36.62;26.48
6393;BME280;3229;42.674;23.282;2023-03-19T07:49:11;95193.13;;;36.63;26.54
6393;BME280;3229;42.674;23.282;2023-03-19T07:51:39;95192.81;;;36.64;26.36
6393;BME280;3229;42.674;23.282;2023-03-19T07:54:06;95197.34;;;36.64;26.60
6393;BME280;3229;42.674;23.282;2023-03-19T07:56:33;95203.25;;;36.61;26.30
6393;BME280;3229;42.674;23.282;2023-03-19T07:59:01;95190.81;;;36.56;26.35
6393;BME280;3229;42.674;23.282;2023-03-19T08:01:28;95190.09;;;36.51;26.38
6393;BME280;3229;42.674;23.282;2023-03-19T08:03:55;95185.13;;;36.44;26.35
6393;BME280;3229;42.674;23.282;2023-03-19T08:06:21;95185.78;;;36.36;26.27
6393;BME280;3229;42.674;23.282;2023-03-19T08:08:50;95197.06;;;36.28;26.50
6393;BME280;3229;42.674;23.282;2023-03-19T08:11:17;95188.41;;;36.17;26.48
6393;BME280;3229;42.674;23.282;2023-03-19T08:13:44;95191.22;;;36.07;26.39
6393;BME280;3229;42.674;23.282;2023-03-19T08:16:10;95190.03;;;35.94;26.39
6393;BME280;3229;42.674;23.282;2023-03-19T08:18:38;95195.53;;;35.79;26.51
6393;BME280;3229;42.674;23.282;2023-03-19T08:21:05;95191.97;;;35.64;26.59
6393;BME280;3229;42.674;23.282;2023-03-19T08:23:32;95194.00;;;35.49;26.65
6393;BME280;3229;42.674;23.282;2023-03-19T08:26:00;95192.28;;;35.34;26.86
6393;BME280;3229;42.674;23.282;2023-03-19T08:28:27;95196.16;;;35.17;26.89
6393;BME280;3229;42.674;23.282;2023-03-19T08:30:54;95192.84;;;34.97;27.18
6393;BME280;3229;42.674;23.282;2023-03-19T08:33:21;95197.28;;;34.77;27.31
6393;BME280;3229;42.674;23.282;2023-03-19T08:35:48;95192.66;;;34.54;27.55
6393;BME280;3229;42.674;23.282;2023-03-19T08:38:15;95189.09;;;34.29;27.75
6393;BME280;3229;42.674;23.282;2023-03-19T08:40:42;95186.28;;;34.05;27.69
6393;BME280;3229;42.674;23.282;2023-03-19T08:43:10;95173.94;;;33.75;27.66
6393;BME280;3229;42.674;23.282;2023-03-19T08:45:37;95174.31;;;33.48;27.83
6393;BME280;3229;42.674;23.282;2023-03-19T08:48:03;95182.56;;;33.21;27.89
6393;BME280;3229;42.674;23.282;2023-03-19T08:50:30;95175.69;;;32.79;30.94
6393;BME280;3229;42.674;23.282;2023-03-19T08:52:57;95159.97;;;32.16;31.49
6393;BME280;3229;42.674;23.282;2023-03-19T08:55:24;95172.19;;;31.60;32.16
6393;BME280;3229;42.674;23.282;2023-03-19T08:57:51;95165.00;;;31.08;32.12
6393;BME280;3229;42.674;23.282;2023-03-19T09:00:19;95161.47;;;30.60;32.84
6393;BME280;3229;42.674;23.282;2023-03-19T09:02:46;95149.50;;;30.20;32.13
6393;BME280;3229;42.674;23.282;2023-03-19T09:05:13;95151.56;;;29.91;31.86
6393;BME280;3229;42.674;23.282;2023-03-19T09:07:40;95153.91;;;29.65;31.19
6393;BME280;3229;42.674;23.282;2023-03-19T09:10:08;95151.44;;;29.37;30.33
6393;BME280;3229;42.674;23.282;2023-03-19T09:12:34;95137.59;;;29.08;29.88
6393;BME280;3229;42.674;23.282;2023-03-19T09:15:01;95142.47;;;28.82;30.30
6393;BME280;3229;42.674;23.282;2023-03-19T09:17:30;95133.63;;;28.55;29.95
6393;BME280;3229;42.674;23.282;2023-03-19T09:19:57;95139.09;;;28.36;30.54
6393;BME280;3229;42.674;23.282;2023-03-19T09:22:23;95136.34;;;28.14;30.84
6393;BME280;3229;42.674;23.282;2023-03-19T09:24:50;95132.53;;;27.93;31.06
6393;BME280;3229;42.674;23.282;2023-03-19T09:27:17;95133.41;;;27.70;31.71
6393;BME280;3229;42.674;23.282;2023-03-19T09:29:45;95136.44;;;27.50;31.75
6393;BME280;3229;42.674;23.282;2023-03-19T09:32:12;95125.72;;;27.29;32.34
6393;BME280;3229;42.674;23.282;2023-03-19T09:34:40;95129.53;;;27.09;32.50
6393;BME280;3229;42.674;23.282;2023-03-19T09:37:07;95127.38;;;26.94;32.88
6393;BME280;3229;42.674;23.282;2023-03-19T09:39:36;95126.22;;;26.79;33.52
6393;BME280;3229;42.674;23.282;2023-03-19T09:42:13;95122.44;;;26.63;34.15
6393;BME280;3229;42.674;23.282;2023-03-19T09:44:43;95121.72;;;26.44;34.34
6393;BME280;3229;42.674;23.282;2023-03-19T09:47:24;95109.34;;;26.21;35.08
6393;BME280;3229;42.674;23.282;2023-03-19T09:49:54;95119.25;;;26.19;35.80
6393;BME280;3229;42.674;23.282;2023-03-19T09:52:40;95112.72;;;26.10;36.25
6393;BME280;3229;42.674;23.282;2023-03-19T09:55:15;95109.28;;;25.97;36.34
6393;BME280;3229;42.674;23.282;2023-03-19T09:57:46;95114.63;;;25.91;36.67
6393;BME280;3229;42.674;23.282;2023-03-19T10:00:24;95110.13;;;25.80;36.56
6393;BME280;3229;42.674;23.282;2023-03-19T10:02:55;95098.19;;;25.65;36.30
6393;BME280;3229;42.674;23.282;2023-03-19T10:05:31;95094.13;;;25.51;36.02
6393;BME280;3229;42.674;23.282;2023-03-19T10:11:23;95091.47;;;25.21;35.85
6393;BME280;3229;42.674;23.282;2023-03-19T10:14:03;95092.59;;;25.07;36.19
6393;BME280;3229;42.674;23.282;2023-03-19T10:16:33;95087.75;;;24.92;36.52
6393;BME280;3229;42.674;23.282;2023-03-19T10:19:03;95087.22;;;24.83;36.48
6393;BME280;3229;42.674;23.282;2023-03-19T10:21:33;95061.25;;;24.63;36.96
6393;BME280;3229;42.674;23.282;2023-03-19T10:24:02;95076.66;;;24.71;37.35
6393;BME280;3229;42.674;23.282;2023-03-19T10:26:33;95071.47;;;24.65;37.17
6393;BME280;3229;42.674;23.282;2023-03-19T10:29:06;95068.34;;;24.56;37.56
6393;BME280;3229;42.674;23.282;2023-03-19T10:31:46;95070.09;;;24.44;37.11
6393;BME280;3229;42.674;23.282;2023-03-19T10:34:36;95067.59;;;24.24;37.01
6393;BME280;3229;42.674;23.282;2023-03-19T10:37:14;95055.47;;;24.04;37.12
6393;BME280;3229;42.674;23.282;2023-03-19T10:39:43;95056.81;;;23.89;36.63
6393;BME280;3229;42.674;23.282;2023-03-19T10:42:37;95048.28;;;23.68;36.48
6393;BME280;3229;42.674;23.282;2023-03-19T10:45:16;95043.75;;;23.50;36.42
6393;BME280;3229;42.674;23.282;2023-03-19T10:47:44;95035.38;;;23.35;36.24
6393;BME280;3229;42.674;23.282;2023-03-19T10:50:15;95037.25;;;23.21;36.19
6393;BME280;3229;42.674;23.282;2023-03-19T10:52:49;95028.69;;;23.08;36.04
6393;BME280;3229;42.674;23.282;2023-03-19T10:55:21;95019.31;;;22.93;35.87
6393;BME280;3229;42.674;23.282;2023-03-19T10:57:50;95018.09;;;22.83;35.60
6393;BME280;3229;42.674;23.282;2023-03-19T11:00:22;95008.72;;;22.68;35.51
6393;BME280;3229;42.674;23.282;2023-03-19T11:02:51;95009.34;;;22.57;35.43
6393;BME280;3229;42.674;23.282;2023-03-19T11:05:23;95001.34;;;22.45;35.40
6393;BME280;3229;42.674;23.282;2023-03-19T11:07:54;95002.56;;;22.36;35.44
6393;BME280;3229;42.674;23.282;2023-03-19T11:10:24;95000.19;;;22.28;35.38
6393;BME280;3229;42.674;23.282;2023-03-19T11:12:55;94996.38;;;22.17;35.17
6393;BME280;3229;42.674;23.282;2023-03-19T11:15:27;94984.31;;;22.10;35.03
6393;BME280;3229;42.674;23.282;2023-03-19T11:17:57;94985.53;;;22.00;35.09
6393;BME280;3229;42.674;23.282;2023-03-19T11:20:28;94979.50;;;21.93;35.16
6393;BME280;3229;42.674;23.282;2023-03-19T11:22:56;94978.50;;;21.88;34.89
6393;BME280;3229;42.674;23.282;2023-03-19T11:25:28;94974.72;;;21.84;34.67
6393;BME280;3229;42.674;23.282;2023-03-19T11:28:00;94968.28;;;21.79;35.09
6393;BME280;3229;42.674;23.282;2023-03-19T11:30:35;94964.69;;;21.74;35.12
6393;BME280;3229;42.674;23.282;2023-03-19T11:36:09;94955.69;;;21.63;34.73
6393;BME280;3229;42.674;23.282;2023-03-19T11:38:48;94952.88;;;21.58;34.79
6393;BME280;3229;42.674;23.282;2023-03-19T11:41:24;94948.25;;;21.53;34.73
6393;BME280;3229;42.674;23.282;2023-03-19T11:43:58;94949.88;;;21.48;34.76
6393;BME280;3229;42.674;23.282;2023-03-19T11:46:41;94941.66;;;21.44;34.60
6393;BME280;3229;42.674;23.282;2023-03-19T11:49:52;94928.44;;;21.39;34.69
6393;BME280;3229;42.674;23.282;2023-03-19T11:52:24;94933.44;;;21.34;34.55
6393;BME280;3229;42.674;23.282;2023-03-19T11:55:07;94927.78;;;21.30;34.62
6393;BME280;3229;42.674;23.282;2023-03-19T11:57:54;94928.41;;;21.26;34.48
6393;BME280;3229;42.674;23.282;2023-03-19T12:00:28;94925.16;;;21.24;34.48
6393;BME280;3229;42.674;23.282;2023-03-19T12:05:59;94914.56;;;21.12;34.53
6393;BME280;3229;42.674;23.282;2023-03-19T12:08:31;94911.56;;;21.09;34.52
6393;BME280;3229;42.674;23.282;2023-03-19T12:11:11;94910.34;;;21.04;34.47
6393;BME280;3229;42.674;23.282;2023-03-19T12:13:57;94905.72;;;21.00;34.37
6393;BME280;3229;42.674;23.282;2023-03-19T12:16:30;94904.53;;;20.96;34.33
6393;BME280;3229;42.674;23.282;2023-03-19T12:19:12;94906.72;;;20.92;34.34
6393;BME280;3229;42.674;23.282;2023-03-19T12:21:53;94899.50;;;20.88;34.31
6393;BME280;3229;42.674;23.282;2023-03-19T12:24:28;94891.06;;;20.79;34.46
6393;BME280;3229;42.674;23.282;2023-03-19T12:27:07;94896.06;;;20.80;34.45
6393;BME280;3229;42.674;23.282;2023-03-19T12:29:45;94890.28;;;20.78;34.35
6393;BME280;3229;42.674;23.282;2023-03-19T12:32:28;94893.88;;;20.77;34.47
6393;BME280;3229;42.674;23.282;2023-03-19T12:35:00;94887.25;;;20.75;34.38
6393;BME280;3229;42.674;23.282;2023-03-19T12:37:32;94876.28;;;20.73;34.43
6393;BME280;3229;42.674;23.282;2023-03-19T12:40:11;94875.44;;;20.72;34.15
6393;BME280;3229;42.674;23.282;2023-03-19T12:42:42;94871.25;;;20.65;34.39
6393;BME280;3229;42.674;23.282;2023-03-19T12:45:22;94881.84;;;20.70;34.39
6393;BME280;3229;42.674;23.282;2023-03-19T12:47:56;94875.88;;;20.69;34.37
6393;BME280;3229;42.674;23.282;2023-03-19T12:50:24;94865.44;;;20.63;34.27
6393;BME280;3229;42.674;23.282;2023-03-19T12:52:54;94875.44;;;20.66;34.47
6393;BME280;3229;42.674;23.282;2023-03-19T12:55:26;94866.84;;;20.65;34.40
6393;BME280;3229;42.674;23.282;2023-03-19T12:58:05;94866.44;;;20.62;34.32
6393;BME280;3229;42.674;23.282;2023-03-19T13:00:39;94867.44;;;20.61;34.43
6393;BME280;3229;42.674;23.282;2023-03-19T13:03:12;94860.44;;;20.61;34.50
6393;BME280;3229;42.674;23.282;2023-03-19T13:05:43;94863.25;;;20.60;34.43
6393;BME280;3229;42.674;23.282;2023-03-19T13:08:14;94856.41;;;20.59;34.38
6393;BME280;3229;42.674;23.282;2023-03-19T13:10:45;94853.81;;;20.59;34.27
6393;BME280;3229;42.674;23.282;2023-03-19T13:13:27;94851.22;;;20.59;34.48
6393;BME280;3229;42.674;23.282;2023-03-19T13:15:58;94848.03;;;20.57;34.48
6393;BME280;3229;42.674;23.282;2023-03-19T13:18:37;94845.63;;;20.55;34.39
6393;BME280;3229;42.674;23.282;2023-03-19T13:21:18;94850.22;;;20.53;34.42
6393;BME280;3229;42.674;23.282;2023-03-19T13:23:49;94840.22;;;20.50;34.53
6393;BME280;3229;42.674;23.282;2023-03-19T13:26:17;94835.41;;;20.47;34.47
6393;BME280;3229;42.674;23.282;2023-03-19T13:28:59;94837.38;;;20.45;34.48
6393;BME280;3229;42.674;23.282;2023-03-19T13:31:27;94835.16;;;20.42;34.51
6393;BME280;3229;42.674;23.282;2023-03-19T13:34:00;94833.13;;;20.37;34.47
6393;BME280;3229;42.674;23.282;2023-03-19T13:36:29;94830.94;;;20.34;34.33